Terminal Aerodrome Forecast
Issued by NWS

Home | Current Version | Previous Version | Text Only | Print | Product List | Glossary On
Versions: 1 2 3 4 5 6 7 8 9 10 11 12 13 14 15 16 17 18 19 20 21 22 23
000
FTAK31 PAFA 212320
TAFAOT
TAF
PAOT 212320Z 2200/2224 33011KT P6SM SCT035
     FM220400 27008KT P6SM SCT035 BKN050
     FM220700 24006KT P6SM VCSH BKN035 OVC050
     FM221100 22014KT P6SM -SHRA SCT015 OVC035=

USA.gov is the U.S. government's official web portal to all federal, state and local government web resources and services.